Time;durP1;ratioP1;P1;durP2;ratioP2;P2;SDS_P1;SDS_P2;PMS_P1;PMS_P2;Temp;Humidity;BMP_temperature;BMP_pressure;BME280_temperature;BME280_humidity;BME280_pressure;Samples;Min_cycle;Max_cycle;Signal;HPM_P1;HPM_P2
2022/11/02 00:01:51;;;;;;;41.97;20.80;;;;;;;5.55;86.99;96055.42;1694303;83;21521;-74
2022/11/02 00:04:17;;;;;;;41.70;20.60;;;;;;;5.38;87.40;96051.34;1722981;83;21513;-74
2022/11/02 00:06:44;;;;;;;33.90;18.80;;;;;;;5.34;87.43;96060.01;1720438;83;21532;-74
2022/11/02 00:09:11;;;;;;;39.87;22.50;;;;;;;5.21;87.97;96066.44;1721658;83;21025;-74
2022/11/02 00:11:37;;;;;;;32.30;18.77;;;;;;;5.13;88.22;96065.48;1718157;83;21018;-74
2022/11/02 00:14:04;;;;;;;29.27;17.50;;;;;;;5.13;88.17;96061.56;1718850;83;21070;-74
2022/11/02 00:16:32;;;;;;;30.73;15.93;;;;;;;5.13;88.20;96053.72;1718596;83;21050;-74
2022/11/02 00:19:00;;;;;;;22.07;12.87;;;;;;;5.14;88.91;96051.97;1718820;83;21003;-74
2022/11/02 00:21:27;;;;;;;17.10;11.80;;;;;;;5.13;88.79;96057.64;1693633;83;21011;-74
2022/11/02 00:23:56;;;;;;;19.53;11.83;;;;;;;5.14;88.53;96048.95;1718754;83;21622;-74
2022/11/02 00:26:25;;;;;;;20.53;13.77;;;;;;;5.18;88.44;96057.25;1721218;83;21010;-74
2022/11/02 00:28:53;;;;;;;18.50;12.10;;;;;;;5.23;88.11;96052.51;1714718;83;21042;-74
2022/11/02 00:31:20;;;;;;;21.87;11.43;;;;;;;5.16;87.12;96054.17;1719879;83;20982;-74
2022/11/02 00:33:47;;;;;;;8.97;6.47;;;;;;;5.12;87.20;96040.64;1720390;83;21516;-74
2022/11/02 00:36:13;;;;;;;15.00;7.90;;;;;;;5.15;87.22;96047.20;1720540;83;22127;-74
2022/11/02 00:38:40;;;;;;;14.90;9.40;;;;;;;5.12;87.04;96046.75;1716235;83;21239;-74
2022/11/02 00:41:06;;;;;;;16.83;9.77;;;;;;;5.04;86.63;96049.73;1720612;83;20971;-74
2022/11/02 00:43:34;;;;;;;16.93;10.40;;;;;;;4.97;86.82;96046.16;1721683;83;21037;-75
2022/11/02 00:46:00;;;;;;;18.97;11.90;;;;;;;4.91;86.89;96046.52;1724860;83;21517;-74
2022/11/02 00:48:27;;;;;;;17.77;10.97;;;;;;;4.97;87.46;96055.31;1720943;83;21009;-75
2022/11/02 00:50:53;;;;;;;21.43;11.00;;;;;;;4.97;86.81;96045.28;1716117;83;21504;-75
2022/11/02 00:53:21;;;;;;;20.57;10.97;;;;;;;5.03;87.45;96047.95;1694901;83;21023;-75
2022/11/02 00:55:50;;;;;;;17.50;10.53;;;;;;;4.97;86.36;96042.23;1723212;83;21050;-75
2022/11/02 00:58:17;;;;;;;14.97;8.70;;;;;;;5.05;87.27;96054.08;1720255;83;20999;-74
2022/11/02 01:00:43;;;;;;;23.07;10.90;;;;;;;5.04;86.11;96048.41;1720060;83;21167;-75
2022/11/02 01:03:10;;;;;;;18.63;11.53;;;;;;;4.95;86.30;96050.48;1716562;83;21054;-74
2022/11/02 01:05:36;;;;;;;15.70;9.63;;;;;;;4.87;85.91;96035.59;1721791;83;21085;-74
2022/11/02 01:08:04;;;;;;;17.83;9.67;;;;;;;4.91;86.67;96041.28;1721973;83;21062;-74
2022/11/02 01:10:31;;;;;;;14.50;8.67;;;;;;;4.87;86.25;96043.44;1721345;83;21034;-74
2022/11/02 01:13:00;;;;;;;12.57;7.60;;;;;;;4.78;86.17;96043.77;1719475;83;21023;-74
2022/11/02 01:15:27;;;;;;;11.97;7.63;;;;;;;4.72;85.95;96040.22;1721062;83;21071;-74
2022/11/02 01:17:55;;;;;;;15.77;8.70;;;;;;;4.68;86.32;96034.06;1718737;83;22261;-75
2022/11/02 01:20:22;;;;;;;17.33;8.97;;;;;;;4.55;85.65;96038.72;1722007;83;21057;-75
2022/11/02 01:22:48;;;;;;;16.20;9.07;;;;;;;4.50;86.15;96029.51;1720401;83;21030;-75
2022/11/02 01:25:15;;;;;;;26.07;13.30;;;;;;;4.42;85.66;96032.91;1717861;83;21054;-75
2022/11/02 01:27:42;;;;;;;19.40;12.50;;;;;;;4.27;86.30;96029.23;1719553;83;21505;-75
2022/11/02 01:30:10;;;;;;;23.87;12.10;;;;;;;4.25;86.96;96030.06;1716920;83;21082;-75
2022/11/02 01:32:37;;;;;;;20.87;11.07;;;;;;;4.19;86.60;96030.87;1721250;83;21069;-75
2022/11/02 01:35:04;;;;;;;18.93;11.27;;;;;;;4.07;86.32;96021.56;1718697;83;21615;-75
2022/11/02 01:37:31;;;;;;;16.40;8.97;;;;;;;4.03;86.96;96023.67;1718362;83;21054;-74
2022/11/02 01:39:58;;;;;;;18.27;10.20;;;;;;;3.98;87.22;96028.86;1719562;83;21030;-75
2022/11/02 01:42:27;;;;;;;14.67;9.27;;;;;;;3.98;87.28;96019.73;1719791;83;21070;-74
2022/11/02 01:44:55;;;;;;;16.67;9.80;;;;;;;3.96;87.08;96021.43;1696036;83;21022;-75
2022/11/02 01:47:30;;;;;;;17.20;9.13;;;;;;;3.90;86.98;96023.50;1719972;83;21045;-75
2022/11/02 01:50:08;;;;;;;21.13;11.47;;;;;;;3.85;87.41;96026.48;1720287;83;21113;-74
2022/11/02 01:52:37;;;;;;;17.97;11.10;;;;;;;3.76;86.83;96019.84;1721352;83;21006;-74
2022/11/02 01:55:16;;;;;;;22.37;11.97;;;;;;;3.73;87.36;96025.02;1717427;83;21098;-75
2022/11/02 01:57:47;;;;;;;16.70;10.23;;;;;;;3.71;87.60;96027.16;1722181;83;21006;-75
2022/11/02 02:00:16;;;;;;;16.93;9.30;;;;;;;3.75;87.53;96023.72;1721057;83;20994;-75
2022/11/02 02:02:51;;;;;;;18.70;10.27;;;;;;;3.73;87.12;96024.13;1695808;83;21054;-75
2022/11/02 02:05:22;;;;;;;18.60;9.73;;;;;;;3.74;87.63;96025.46;1721969;83;21062;-75
2022/11/02 02:07:51;;;;;;;17.17;9.87;;;;;;;3.78;87.57;96020.75;1720272;83;21062;-75
2022/11/02 02:10:18;;;;;;;20.33;10.57;;;;;;;3.86;87.74;96015.20;1720575;83;21017;-75
2022/11/02 02:12:45;;;;;;;17.63;10.27;;;;;;;3.92;87.01;96013.53;1720721;83;21682;-75
2022/11/02 02:15:14;;;;;;;18.23;10.67;;;;;;;3.83;86.16;96014.26;1719272;83;21026;-74
2022/11/02 02:17:55;;;;;;;19.77;10.73;;;;;;;3.80;86.56;96004.66;1720948;83;21026;-74
2022/11/02 02:20:59;;;;;;;18.57;10.70;;;;;;;3.76;86.33;96009.84;1720647;83;21054;-75
2022/11/02 02:23:34;;;;;;;21.45;11.65;;;;;;;3.73;86.82;96003.23;1716202;83;21026;-74
2022/11/02 02:26:49;;;;;;;17.70;10.37;;;;;;;3.80;87.52;96003.78;1721921;83;21525;-74
2022/11/02 02:29:34;;;;;;;18.33;11.03;;;;;;;3.85;86.98;96002.11;1723788;83;21033;-74
2022/11/02 02:32:30;;;;;;;17.60;11.00;;;;;;;3.95;87.31;95998.77;1718273;83;21129;-74
2022/11/02 02:35:24;;;;;;;17.27;10.80;;;;;;;3.90;85.52;96004.36;1717723;83;21010;-75
2022/11/02 02:38:00;;;;;;;20.88;10.23;;;;;;;3.84;86.01;95997.77;1713963;83;21085;-75
2022/11/02 02:40:49;;;;;;;17.97;9.90;;;;;;;3.84;86.53;96002.98;1716772;83;21019;-75
2022/11/02 02:43:31;;;;;;;19.70;9.70;;;;;;;3.86;86.45;96006.06;1718751;83;21476;-74
2022/11/02 02:46:03;;;;;;;17.52;9.70;;;;;;;3.93;86.44;96012.66;1720953;83;20995;-75
2022/11/02 02:48:33;;;;;;;13.83;9.83;;;;;;;4.01;86.76;96016.28;1719496;83;21599;-75
2022/11/02 02:51:04;;;;;;;14.37;9.10;;;;;;;4.08;86.45;96015.48;1720619;83;21042;-75
2022/11/02 02:53:39;;;;;;;14.70;9.70;;;;;;;4.01;85.16;96018.89;1693488;83;21034;-75
2022/11/02 02:56:09;;;;;;;13.80;10.07;;;;;;;3.92;84.77;96022.67;1718449;83;21516;-75
2022/11/02 02:58:53;;;;;;;14.77;9.20;;;;;;;3.87;85.33;96019.98;1721851;83;21066;-74
2022/11/02 03:01:20;;;;;;;17.70;10.00;;;;;;;3.77;85.01;96020.72;1715505;83;21159;-75
2022/11/02 03:03:47;;;;;;;14.53;9.83;;;;;;;3.57;84.69;96022.59;1715164;83;21078;-74
2022/11/02 03:06:24;;;;;;;15.50;9.50;;;;;;;3.53;85.46;96023.42;1724579;83;21125;-74
2022/11/02 03:09:25;;;;;;;14.30;8.20;;;;;;;3.57;85.85;96029.11;1719094;83;21003;-74
2022/11/02 03:12:21;;;;;;;13.63;8.63;;;;;;;3.59;85.85;96024.80;1717693;83;21074;-74
2022/11/02 03:15:13;;;;;;;15.37;9.97;;;;;;;3.41;86.03;96027.13;1717043;83;21485;-74
2022/11/02 03:18:06;;;;;;;18.47;9.93;;;;;;;3.35;87.17;96024.41;1721813;83;21081;-73
2022/11/02 03:20:54;;;;;;;20.77;12.37;;;;;;;3.25;86.73;96028.19;1719198;83;21033;-74
2022/11/02 03:23:43;;;;;;;20.47;11.20;;;;;;;3.25;87.15;96028.19;1717292;83;21073;-73
2022/11/02 03:26:31;;;;;;;16.27;10.37;;;;;;;3.23;87.18;96025.98;1718259;83;21026;-74
2022/11/02 03:29:09;;;;;;;11.63;7.50;;;;;;;3.29;87.47;96029.54;1720479;83;21086;-74
2022/11/02 03:31:42;;;;;;;12.70;8.87;;;;;;;3.39;87.89;96036.22;1722477;83;21152;-74
2022/11/02 03:34:18;;;;;;;13.03;8.03;;;;;;;3.45;88.18;96036.74;1720205;83;21054;-74
2022/11/02 03:37:05;;;;;;;12.97;8.37;;;;;;;3.54;88.29;96042.12;1723317;83;21061;-74
2022/11/02 03:39:43;;;;;;;10.00;6.63;;;;;;;3.65;88.22;96043.17;1706732;83;21054;-74
2022/11/02 03:42:15;;;;;;;11.07;7.90;;;;;;;3.76;88.38;96042.46;1720991;83;21014;-74
2022/11/02 03:44:45;;;;;;;11.60;7.43;;;;;;;3.86;88.62;96049.57;1720341;83;21496;-73
2022/11/02 03:47:16;;;;;;;9.53;6.57;;;;;;;3.97;88.48;96049.28;1694105;83;21072;-73
2022/11/02 03:49:45;;;;;;;9.93;6.87;;;;;;;4.15;88.89;96056.92;1719729;83;21026;-74
2022/11/02 03:52:18;;;;;;;11.30;7.60;;;;;;;4.27;88.25;96056.66;1721443;83;21077;-75
2022/11/02 03:55:19;;;;;;;8.87;6.57;;;;;;;4.39;88.71;96055.08;1716053;83;21042;-74
2022/11/02 03:57:49;;;;;;;8.43;6.40;;;;;;;4.45;88.22;96058.63;1720653;83;21030;-74
2022/11/02 04:00:23;;;;;;;10.80;6.93;;;;;;;4.53;88.38;96050.88;1719909;83;21131;-74
2022/11/02 04:02:57;;;;;;;11.40;7.43;;;;;;;4.53;88.65;96056.97;1715790;83;21070;-75
2022/11/02 04:05:31;;;;;;;14.30;8.80;;;;;;;4.60;88.56;96050.53;1720698;83;21029;-75
2022/11/02 04:16:16;;;;;;;19.83;11.73;;;;;;;4.46;87.19;96067.33;1722473;83;21018;-75
2022/11/02 04:21:29;;;;;;;20.77;14.60;;;;;;;4.50;86.73;96059.99;1719556;83;21030;-75
2022/11/02 04:26:43;;;;;;;15.20;10.37;;;;;;;4.75;87.73;96056.80;1720166;83;21465;-74
2022/11/02 04:29:11;;;;;;;16.33;11.30;;;;;;;4.92;88.11;96058.74;1716857;83;21500;-75
2022/11/02 04:31:37;;;;;;;23.03;13.57;;;;;;;4.97;87.31;96071.44;1718775;83;20991;-74
2022/11/02 04:34:04;;;;;;;24.73;15.30;;;;;;;4.88;86.34;96070.89;1717679;83;21050;-74
2022/11/02 04:36:32;;;;;;;32.47;19.40;;;;;;;4.76;86.07;96070.34;1716924;83;21068;-74
2022/11/02 04:38:59;;;;;;;22.40;14.83;;;;;;;4.67;87.08;96070.66;1719113;83;21049;-74
2022/11/02 04:41:43;;;;;;;39.30;23.50;;;;;;;4.64;87.74;96069.33;1718769;83;20998;-74
2022/11/02 04:44:13;;;;;;;53.20;28.63;;;;;;;4.67;88.31;96070.23;1716921;83;21062;-75
2022/11/02 04:46:42;;;;;;;43.30;26.03;;;;;;;4.71;88.32;96069.41;1715131;83;20990;-75
2022/11/02 04:49:11;;;;;;;44.67;27.83;;;;;;;4.69;88.26;96070.25;1720293;83;21023;-75
2022/11/02 04:51:39;;;;;;;45.17;25.63;;;;;;;4.73;88.19;96067.67;1716870;83;21050;-75
2022/11/02 04:54:06;;;;;;;52.07;32.83;;;;;;;4.77;88.05;96066.86;1716259;83;21069;-75
2022/11/02 04:56:33;;;;;;;39.37;23.80;;;;;;;4.84;88.21;96074.75;1723214;83;21156;-75
2022/11/02 04:59:01;;;;;;;34.67;20.03;;;;;;;4.87;87.94;96078.30;1715736;83;21355;-75
2022/11/02 05:01:29;;;;;;;49.67;27.27;;;;;;;4.84;87.68;96075.66;1720172;83;21038;-75
2022/11/02 05:03:58;;;;;;;37.70;22.40;;;;;;;4.85;87.80;96070.86;1718909;83;21508;-75
2022/11/02 05:06:26;;;;;;;38.93;22.73;;;;;;;4.81;88.12;96073.42;1721196;83;21066;-75
2022/11/02 05:08:53;;;;;;;34.87;19.17;;;;;;;4.81;88.14;96072.11;1721957;83;21002;-75
2022/11/02 05:11:20;;;;;;;24.70;15.83;;;;;;;4.81;88.12;96078.65;1724918;83;21065;-74
2022/11/02 05:13:48;;;;;;;23.10;13.97;;;;;;;4.80;88.20;96077.78;1715625;83;21058;-74
2022/11/02 05:16:16;;;;;;;22.07;14.13;;;;;;;4.83;88.26;96078.24;1718653;83;21057;-74
2022/11/02 05:18:44;;;;;;;24.00;14.40;;;;;;;4.84;88.76;96083.91;1715169;83;21071;-75
2022/11/02 05:21:11;;;;;;;23.73;13.00;;;;;;;4.84;88.69;96086.52;1714640;83;21078;-74
2022/11/02 05:23:39;;;;;;;26.83;15.07;;;;;;;4.82;88.55;96090.45;1718961;83;21069;-74
2022/11/02 05:26:10;;;;;;;32.13;17.77;;;;;;;4.83;88.31;96086.95;1720907;83;21556;-74
2022/11/02 05:28:38;;;;;;;27.87;15.93;;;;;;;4.83;88.82;96099.16;1721651;83;21079;-75
2022/11/02 05:31:06;;;;;;;28.60;15.57;;;;;;;4.91;89.12;96097.50;1718835;83;21029;-75
2022/11/02 05:33:34;;;;;;;26.47;14.53;;;;;;;4.98;89.17;96107.17;1722201;83;21149;-75
2022/11/02 05:36:03;;;;;;;26.63;16.30;;;;;;;5.06;89.61;96108.13;1716143;83;21092;-75
2022/11/02 05:38:30;;;;;;;28.27;16.23;;;;;;;5.12;89.22;96114.75;1722006;83;21030;-74
2022/11/02 05:40:59;;;;;;;29.47;16.60;;;;;;;5.17;88.93;96109.58;1722282;83;21046;-75
2022/11/02 05:43:27;;;;;;;32.30;18.67;;;;;;;5.16;88.33;96116.52;1721100;83;21007;-75
2022/11/02 05:46:00;;;;;;;42.63;25.57;;;;;;;5.16;88.94;96121.75;1719143;83;21141;-75
2022/11/02 05:48:30;;;;;;;68.43;40.83;;;;;;;5.20;89.33;96120.94;1716901;83;21026;-74
2022/11/02 05:51:00;;;;;;;42.40;24.67;;;;;;;5.28;89.51;96121.02;1719737;83;21018;-74
2022/11/02 05:53:37;;;;;;;31.80;19.00;;;;;;;5.32;89.64;96121.95;1718793;83;21587;-74
2022/11/02 05:56:01;;;;;;;34.97;19.93;;;;;;;5.40;89.75;96126.81;1715022;83;21022;-74
2022/11/02 05:58:28;;;;;;;33.27;18.17;;;;;;;5.45;89.58;96125.56;1714347;83;20978;-77
2022/11/02 06:01:01;;;;;;;32.07;19.33;;;;;;;5.56;90.07;96131.31;1721067;83;21575;-75
2022/11/02 06:03:29;;;;;;;29.67;17.85;;;;;;;5.61;89.67;96132.23;1719874;83;21116;-76
2022/11/02 06:06:00;;;;;;;34.20;20.63;;;;;;;5.70;89.62;96138.01;1719835;83;21062;-75
2022/11/02 06:08:27;;;;;;;36.73;20.10;;;;;;;5.80;89.47;96139.84;1717645;83;21030;-75
2022/11/02 06:10:54;;;;;;;38.30;20.83;;;;;;;5.92;89.70;96143.00;1752915;76;22167;-75
2022/11/02 06:13:20;;;;;;;42.97;23.27;;;;;;;5.93;88.95;96137.33;1749392;81;21021;-71
2022/11/02 06:15:47;;;;;;;61.67;37.37;;;;;;;6.05;89.59;96146.63;1748996;81;21018;-81
2022/11/02 06:18:14;;;;;;;36.77;21.57;;;;;;;6.18;89.32;96148.47;1746507;81;21002;-73
2022/11/02 06:20:40;;;;;;;30.77;17.87;;;;;;;6.26;88.84;96148.08;1713369;83;21059;-77
2022/11/02 06:23:07;;;;;;;38.20;19.80;;;;;;;6.36;88.77;96150.34;1695347;83;21032;-78
2022/11/02 06:25:33;;;;;;;28.23;15.90;;;;;;;6.50;88.73;96146.48;1716177;81;21066;-80
2022/11/02 06:28:00;;;;;;;29.63;14.97;;;;;;;6.55;88.18;96146.10;1715571;81;21165;-74
2022/11/02 06:30:27;;;;;;;31.43;17.37;;;;;;;6.55;87.51;96146.51;1723917;81;21003;-75
2022/11/02 06:32:54;;;;;;;29.23;16.07;;;;;;;6.54;88.00;96148.27;1715816;83;21109;-75
2022/11/02 06:35:22;;;;;;;32.43;17.27;;;;;;;6.71;88.80;96148.37;1743521;81;21520;-77
2022/11/02 06:37:49;;;;;;;37.60;19.87;;;;;;;6.84;88.00;96146.23;1725669;82;21093;-74
2022/11/02 06:40:15;;;;;;;38.67;18.80;;;;;;;6.83;87.54;96146.22;1719064;83;21003;-78
2022/11/02 06:42:42;;;;;;;34.60;20.40;;;;;;;6.88;87.93;96142.77;1718044;83;21568;-83
2022/11/02 06:45:10;;;;;;;33.80;18.30;;;;;;;7.04;88.59;96145.45;1715134;81;21054;-71
2022/11/02 06:47:37;;;;;;;41.60;20.97;;;;;;;7.10;87.34;96139.78;1763658;79;21022;-71
2022/11/02 06:50:05;;;;;;;35.00;18.73;;;;;;;7.13;87.72;96145.06;1756580;80;21503;-74
2022/11/02 06:52:32;;;;;;;39.03;20.50;;;;;;;7.19;87.69;96150.76;1767961;80;21018;-73
2022/11/02 06:54:58;;;;;;;39.23;24.00;;;;;;;7.21;87.13;96159.97;1767182;80;20987;-77
2022/11/02 06:57:25;;;;;;;34.93;19.20;;;;;;;7.20;87.43;96161.69;1767571;79;21003;-77
2022/11/02 06:59:52;;;;;;;36.83;17.70;;;;;;;7.24;87.54;96158.21;1759452;80;21671;-71
2022/11/02 07:02:20;;;;;;;36.57;18.70;;;;;;;7.28;87.58;96161.30;1731708;81;21034;-75
2022/11/02 07:04:48;;;;;;;35.50;16.77;;;;;;;7.35;87.47;96157.80;1750185;80;21029;-73
2022/11/02 07:07:15;;;;;;;39.20;17.73;;;;;;;7.32;87.61;96163.05;1764422;80;21070;-68
2022/11/02 07:09:41;;;;;;;33.07;17.23;;;;;;;7.38;87.70;96159.55;1761341;80;21054;-77
2022/11/02 07:12:08;;;;;;;42.23;24.50;;;;;;;7.39;87.66;96160.45;1763699;80;21569;-71
2022/11/02 07:14:34;;;;;;;44.10;25.17;;;;;;;7.37;87.77;96156.50;1768280;80;21049;-74
2022/11/02 07:17:01;;;;;;;49.17;23.73;;;;;;;7.43;88.12;96156.94;1765412;79;21515;-74
2022/11/02 07:19:28;;;;;;;36.40;17.07;;;;;;;7.53;87.99;96160.03;1753346;80;21050;-69
2022/11/02 07:21:54;;;;;;;40.47;20.43;;;;;;;7.61;88.10;96158.32;1752354;80;21013;-77
2022/11/02 07:24:21;;;;;;;39.70;19.63;;;;;;;7.70;88.34;96157.45;1761844;78;21038;-75
2022/11/02 07:26:49;;;;;;;53.10;27.03;;;;;;;7.75;88.38;96151.32;1755537;80;21041;-78
2022/11/02 07:29:17;;;;;;;51.90;26.87;;;;;;;7.85;88.65;96160.53;1770838;79;21093;-78
2022/11/02 07:31:44;;;;;;;51.07;27.50;;;;;;;7.88;88.40;96159.22;1757667;80;20983;-77
2022/11/02 07:34:12;;;;;;;44.20;23.35;;;;;;;7.99;88.46;96145.67;1773556;80;21018;-74
2022/11/02 07:36:39;;;;;;;36.17;19.13;;;;;;;8.16;89.28;96141.25;1758797;80;21208;-77
2022/11/02 07:39:06;;;;;;;33.45;16.87;;;;;;;8.33;89.16;96141.25;1758231;81;21128;-76
2022/11/02 07:41:34;;;;;;;41.30;18.10;;;;;;;8.49;89.44;96144.76;1759050;81;21542;-77
2022/11/02 07:44:00;;;;;;;29.72;14.85;;;;;;;8.66;89.71;96144.29;1760534;81;21006;-75
2022/11/02 07:46:35;;;;;;;36.33;18.87;;;;;;;8.81;89.62;96146.45;1761906;80;21557;-74
2022/11/02 07:49:01;;;;;;;30.47;17.03;;;;;;;8.96;89.40;96154.75;1761302;79;21049;-76
2022/11/02 07:51:28;;;;;;;25.88;16.37;;;;;;;9.05;88.72;96150.78;1763929;80;21017;-78
2022/11/02 07:53:55;;;;;;;24.63;14.83;;;;;;;9.17;89.35;96141.94;1766264;80;21017;-78
2022/11/02 07:56:22;;;;;;;44.05;20.00;;;;;;;9.32;89.17;96143.17;1766656;80;21018;-77
2022/11/02 07:58:49;;;;;;;37.63;17.80;;;;;;;9.47;89.02;96147.05;1764223;80;21042;-79
2022/11/02 08:01:15;;;;;;;34.18;16.32;;;;;;;9.56;88.49;96147.45;1759851;79;21660;-73
2022/11/02 08:03:42;;;;;;;37.03;17.80;;;;;;;9.61;87.98;96145.66;1762672;80;21493;-80
2022/11/02 08:06:08;;;;;;;35.63;17.40;;;;;;;9.63;87.82;96145.22;1752599;80;21528;-74
2022/11/02 08:08:36;;;;;;;33.75;17.12;;;;;;;9.63;87.56;96142.58;1762380;80;21516;-79
2022/11/02 08:11:06;;;;;;;32.10;16.50;;;;;;;9.69;87.62;96146.94;1758906;80;21046;-74
2022/11/02 08:13:33;;;;;;;32.53;16.30;;;;;;;9.70;87.28;96142.08;1768622;79;21042;-76
2022/11/02 08:16:00;;;;;;;32.90;16.77;;;;;;;9.75;87.28;96149.09;1765037;80;21516;-76
2022/11/02 08:18:30;;;;;;;29.82;15.88;;;;;;;9.83;87.67;96146.86;1762214;80;21142;-73
2022/11/02 08:20:58;;;;;;;35.75;16.90;;;;;;;9.94;87.70;96148.96;1768260;80;21029;-79
2022/11/02 08:23:25;;;;;;;35.58;18.40;;;;;;;9.99;87.20;96151.13;1755943;80;21101;-74
2022/11/02 08:25:53;;;;;;;38.15;20.20;;;;;;;10.02;87.09;96143.63;1765856;81;21022;-73
2022/11/02 08:28:24;;;;;;;40.05;20.95;;;;;;;10.06;87.17;96146.23;1765785;80;21053;-77
2022/11/02 08:30:52;;;;;;;41.70;21.02;;;;;;;10.09;87.12;96146.20;1756778;81;21042;-71
2022/11/02 08:33:20;;;;;;;39.35;20.57;;;;;;;10.08;86.89;96147.11;1746034;81;21121;-71
2022/11/02 08:35:47;;;;;;;36.98;20.80;;;;;;;10.06;86.60;96150.64;1762380;81;21583;-75
2022/11/02 08:38:15;;;;;;;36.17;20.82;;;;;;;10.08;86.70;96156.34;1763389;80;21125;-71
2022/11/02 08:40:42;;;;;;;31.52;18.90;;;;;;;10.07;86.57;96162.48;1731684;80;21089;-72
2022/11/02 08:43:12;;;;;;;31.70;18.20;;;;;;;10.00;86.42;96154.63;1758861;80;21027;-73
2022/11/02 08:45:42;;;;;;;28.65;17.30;;;;;;;9.89;86.44;96157.34;1761721;81;20974;-80
2022/11/02 08:48:09;;;;;;;30.12;18.20;;;;;;;9.72;86.59;96153.49;1758032;80;21089;-75
2022/11/02 08:50:35;;;;;;;30.15;16.87;;;;;;;9.67;86.68;96153.97;1761139;80;21062;-77
2022/11/02 08:53:02;;;;;;;28.83;15.65;;;;;;;9.66;86.95;96152.23;1757369;80;21045;-75
2022/11/02 08:55:29;;;;;;;26.52;15.43;;;;;;;9.67;87.31;96150.88;1758311;80;21006;-77
2022/11/02 08:57:58;;;;;;;31.90;16.27;;;;;;;9.65;87.32;96161.90;1750475;80;21034;-77
2022/11/02 09:00:28;;;;;;;25.43;15.48;;;;;;;9.68;87.37;96151.34;1750950;81;21072;-80
2022/11/02 09:03:07;;;;;;;24.15;14.15;;;;;;;9.69;88.07;96146.94;1760872;80;20983;-77
2022/11/02 09:05:43;;;;;;;29.23;14.78;;;;;;;9.70;87.72;96148.67;1755084;81;20986;-77
2022/11/02 09:08:16;;;;;;;24.12;15.75;;;;;;;9.82;87.94;96149.91;1754523;80;21104;-77
2022/11/02 09:10:45;;;;;;;24.57;14.90;;;;;;;9.89;87.67;96142.84;1754499;80;21099;-79
2022/11/02 09:13:14;;;;;;;22.32;14.43;;;;;;;10.02;88.06;96143.18;1751508;80;21066;-76
2022/11/02 09:15:41;;;;;;;24.00;14.20;;;;;;;10.18;87.77;96145.28;1752267;80;21551;-78
2022/11/02 09:18:08;;;;;;;25.75;16.70;;;;;;;10.30;87.46;96139.91;1753027;81;21519;-77
2022/11/02 09:20:36;;;;;;;24.60;15.53;;;;;;;10.44;87.18;96141.11;1721846;82;21025;-74
2022/11/02 09:23:03;;;;;;;23.40;15.35;;;;;;;10.52;86.79;96134.44;1700623;83;21067;-80
2022/11/02 09:25:30;;;;;;;23.15;15.15;;;;;;;10.66;86.87;96125.95;1707868;83;21572;-80
2022/11/02 09:27:57;;;;;;;23.40;14.60;;;;;;;10.80;86.75;96122.70;1706824;83;21098;-79
2022/11/02 09:30:25;;;;;;;23.83;16.30;;;;;;;10.96;86.27;96118.14;1705329;83;21101;-80
2022/11/02 09:33:00;;;;;;;25.60;16.93;;;;;;;11.04;85.15;96115.41;1690394;82;21053;-79
2022/11/02 09:35:32;;;;;;;28.67;17.30;;;;;;;11.12;85.38;96113.54;1726190;82;21150;-79
2022/11/02 09:37:59;;;;;;;28.10;17.57;;;;;;;11.17;84.95;96109.08;1730295;82;21078;-79
2022/11/02 09:40:36;;;;;;;27.32;18.40;;;;;;;11.19;84.83;96116.98;1726289;83;21065;-73
2022/11/02 09:43:47;;;;;;;24.05;16.93;;;;;;;11.18;84.15;96116.55;1700330;83;21028;-77
2022/11/02 09:46:22;;;;;;;27.73;18.20;;;;;;;11.15;83.77;96120.09;1707349;82;21004;-75
2022/11/02 09:49:20;;;;;;;25.82;17.95;;;;;;;11.12;84.01;96120.14;1729782;82;21524;-77
2022/11/02 09:51:54;;;;;;;25.52;17.82;;;;;;;11.21;84.00;96125.74;1715779;81;21071;-74
2022/11/02 09:54:34;;;;;;;26.57;18.00;;;;;;;11.23;83.39;96126.61;1719566;81;21161;-74
2022/11/02 09:57:09;;;;;;;30.68;19.98;;;;;;;11.21;83.26;96119.14;1718254;81;21042;-74
2022/11/02 09:59:36;;;;;;;25.32;16.87;;;;;;;11.31;83.28;96120.77;1719284;83;21068;-78
2022/11/02 10:02:40;;;;;;;26.75;18.17;;;;;;;11.45;82.58;96111.35;1730799;80;21164;-80
2022/11/02 10:05:13;;;;;;;;;;;;;;;11.84;82.72;96113.87;1701953;83;21518;-73
2022/11/02 10:07:54;;;;;;;24.85;15.58;;;;;;;12.46;81.66;96102.30;1726561;82;20140;-73
2022/11/02 10:10:35;;;;;;;25.08;16.62;;;;;;;12.87;81.06;96101.98;1719269;81;21103;-76
2022/11/02 10:13:29;;;;;;;27.00;16.87;;;;;;;13.41;79.50;96088.55;1723819;82;21124;-75
2022/11/02 10:16:16;;;;;;;25.52;16.23;;;;;;;13.63;78.62;96085.84;1710953;83;21722;-74
2022/11/02 10:18:48;;;;;;;24.43;15.18;;;;;;;13.90;75.50;96087.42;1692620;84;21033;-74
2022/11/02 10:21:26;;;;;;;24.43;15.83;;;;;;;14.11;75.50;96083.83;1724800;81;21091;-74
2022/11/02 10:24:00;;;;;;;24.63;15.72;;;;;;;14.16;73.62;96087.23;1692951;82;21127;-74
2022/11/02 10:26:38;;;;;;;22.77;16.93;;;;;;;14.41;74.55;96087.48;1735024;81;21118;-74
2022/11/02 10:29:42;;;;;;;23.55;15.25;;;;;;;14.50;73.36;96081.95;1704257;82;21094;-74
2022/11/02 10:32:11;;;;;;;;;;;;;;;14.53;71.34;96080.57;1627620;86;21545;-74
2022/11/02 10:34:39;;;;;;;22.37;14.90;;;;;;;14.37;72.62;96074.77;1680544;83;20101;-74
2022/11/02 10:37:37;;;;;;;25.08;15.28;;;;;;;14.14;71.95;96058.10;1721313;83;21045;-74
2022/11/02 10:40:41;;;;;;;20.82;14.18;;;;;;;14.05;72.73;96052.55;1667262;84;21017;-74
2022/11/02 10:43:41;;;;;;;22.60;16.23;;;;;;;13.99;73.87;96064.66;1716078;81;21032;-74
2022/11/02 10:46:22;;;;;;;22.85;15.58;;;;;;;13.93;73.21;96050.66;1728929;81;21612;-74
2022/11/02 10:49:27;;;;;;;40.78;23.47;;;;;;;13.83;73.89;96060.61;1742840;81;21104;-73
2022/11/02 10:51:54;;;;;;;30.57;18.52;;;;;;;14.10;73.71;96067.50;1735314;82;21039;-73
2022/11/02 10:54:20;;;;;;;35.52;23.18;;;;;;;14.80;72.66;96059.50;1711471;83;21049;-74
2022/11/02 10:56:49;;;;;;;27.87;19.40;;;;;;;14.97;70.81;96065.66;1719892;83;21033;-74
2022/11/02 10:59:24;;;;;;;30.60;21.10;;;;;;;15.41;71.50;96064.84;1713619;82;21076;-74
2022/11/02 11:01:59;;;;;;;25.90;17.20;;;;;;;15.64;69.27;96069.45;1719375;83;21027;-74
2022/11/02 11:04:28;;;;;;;30.85;19.67;;;;;;;15.67;67.18;96071.54;1709875;83;21088;-74
2022/11/02 11:06:57;;;;;;;28.42;19.45;;;;;;;15.54;68.51;96065.73;1709690;83;21507;-74
2022/11/02 11:09:32;;;;;;;69.80;35.85;;;;;;;15.75;68.89;96068.70;1715061;83;21017;-74
2022/11/02 11:12:05;;;;;;;34.70;22.55;;;;;;;15.84;68.06;96067.06;1717828;83;21040;-74
2022/11/02 11:14:40;;;;;;;;;;;;;;;15.85;67.58;96070.16;1737701;82;21072;-73
2022/11/02 11:17:20;;;;;;;31.65;20.92;;;;;;;15.36;68.12;96072.94;1722525;82;20403;-73
2022/11/02 11:19:53;;;;;;;29.45;20.08;;;;;;;15.02;69.65;96076.59;1721639;82;21040;-74
2022/11/02 11:22:39;;;;;;;28.80;19.00;;;;;;;14.71;70.60;96079.20;1744890;80;21518;-74
2022/11/02 11:25:20;;;;;;;36.75;22.90;;;;;;;14.36;71.65;96081.43;1737115;80;21050;-74
2022/11/02 11:27:53;;;;;;;52.65;30.05;;;;;;;14.04;72.25;96087.10;1732867;81;21040;-74
2022/11/02 11:30:32;;;;;;;69.00;37.75;;;;;;;13.71;73.26;96089.64;1734639;81;21047;-74
2022/11/02 11:33:03;;;;;;;35.52;20.60;;;;;;;13.37;74.43;96094.35;1739689;82;21032;-74
2022/11/02 11:35:38;;;;;;;49.48;29.27;;;;;;;13.14;75.25;96092.61;1716488;82;21037;-73
2022/11/02 11:38:15;;;;;;;32.38;19.37;;;;;;;12.98;76.40;96100.02;1729878;82;21083;-73
2022/11/02 11:40:53;;;;;;;29.48;18.27;;;;;;;12.94;76.53;96096.98;1747694;82;21036;-73
2022/11/02 11:43:25;;;;;;;38.23;21.35;;;;;;;12.93;76.99;96098.77;1723563;82;21087;-73
2022/11/02 11:46:01;;;;;;;31.25;18.40;;;;;;;12.81;77.54;96100.33;1727587;82;21602;-74
2022/11/02 11:48:53;;;;;;;34.53;19.77;;;;;;;12.81;77.54;96100.33;1708323;82;21025;-74
2022/11/02 11:51:36;;;;;;;32.85;18.15;;;;;;;12.66;78.13;96105.46;1711909;82;21644;-74
2022/11/02 11:54:20;;;;;;;35.33;20.75;;;;;;;12.66;78.13;96105.46;1722346;82;21084;-74
2022/11/02 11:56:49;;;;;;;30.72;17.75;;;;;;;12.68;78.03;96112.93;1714591;82;21158;-74
2022/11/02 11:59:27;;;;;;;39.50;22.70;;;;;;;12.64;78.18;96105.94;1680494;84;21520;-74
2022/11/02 12:02:00;;;;;;;35.88;20.55;;;;;;;12.69;78.08;96104.53;1746474;81;21045;-74